UNWW 182030Z 13001MPS CAVOK 08/03 Q1009 R19/09//55 NOSIG RMK QFE729
QNH:(hPa/inHg/mmHg)1009 / 29.8 / 757
QFE:(hPa/inHg/mmHg)971 / 28.68 / 728
Temperature8
Dew Point3
Visibility> 10000
WeatherCAVOK
Cloud Cover
Transition Height800 m./3700 ft.
Transition LevelFL60
SQUAWK